Time;durP1;ratioP1;P1;durP2;ratioP2;P2;SDS_P1;SDS_P2;PMS_P1;PMS_P2;Temp;Humidity;BMP_temperature;BMP_pressure;BME280_temperature;BME280_humidity;BME280_pressure;Samples;Min_cycle;Max_cycle;Signal;HPM_P1;HPM_P2
2022/11/21 00:00:06;;;;;;;29.38;19.95;;;;;;;;;;5075971;28;20453;-71
2022/11/21 00:02:32;;;;;;;28.63;19.17;;;;;;;;;;5075107;28;20500;-71
2022/11/21 00:04:58;;;;;;;30.75;20.17;;;;;;;;;;5072915;28;20760;-71
2022/11/21 00:07:24;;;;;;;28.48;19.20;;;;;;;;;;5075792;28;20487;-71
2022/11/21 00:09:50;;;;;;;29.05;19.27;;;;;;;;;;5086461;28;20408;-71
2022/11/21 00:12:18;;;;;;;28.17;18.80;;;;;;;;;;5066021;28;20462;-72
2022/11/21 00:14:44;;;;;;;30.23;19.90;;;;;;;;;;5075193;28;20681;-72
2022/11/21 00:17:10;;;;;;;33.23;20.90;;;;;;;;;;5051917;28;20431;-72
2022/11/21 00:19:36;;;;;;;30.52;18.98;;;;;;;;;;5083480;28;20424;-72
2022/11/21 00:22:02;;;;;;;28.25;18.23;;;;;;;;;;5086173;28;20422;-72
2022/11/21 00:24:28;;;;;;;28.08;18.23;;;;;;;;;;5074667;28;20406;-72
2022/11/21 00:26:54;;;;;;;28.45;18.85;;;;;;;;;;5064712;28;20522;-72
2022/11/21 00:29:20;;;;;;;28.65;19.27;;;;;;;;;;5081935;28;20449;-73
2022/11/21 00:31:46;;;;;;;27.70;17.80;;;;;;;;;;5083539;28;20425;-73
2022/11/21 00:34:12;;;;;;;30.10;18.27;;;;;;;;;;5077920;28;20424;-72
2022/11/21 00:36:38;;;;;;;30.23;18.70;;;;;;;;;;5068805;28;20418;-72
2022/11/21 00:39:04;;;;;;;28.52;18.48;;;;;;;;;;5093078;28;20503;-72
2022/11/21 00:41:30;;;;;;;28.60;19.40;;;;;;;;;;5090783;28;20428;-72
2022/11/21 00:43:56;;;;;;;28.27;18.60;;;;;;;;;;5090356;28;20447;-72
2022/11/21 00:46:22;;;;;;;30.02;18.77;;;;;;;;;;5086842;28;20927;-72
2022/11/21 00:48:48;;;;;;;30.20;20.10;;;;;;;;;;5055825;28;20996;-72
2022/11/21 00:51:14;;;;;;;27.50;18.80;;;;;;;;;;5086644;28;20508;-72
2022/11/21 00:53:42;;;;;;;28.73;18.80;;;;;;;;;;5074936;28;20422;-79
2022/11/21 00:56:08;;;;;;;27.02;18.83;;;;;;;;;;5075754;28;20508;-79
2022/11/21 00:58:34;;;;;;;27.55;18.75;;;;;;;;;;5095501;28;20474;-72
2022/11/21 01:01:05;;;;;;;28.50;19.00;;;;;;;;;;5085140;28;20496;-72
2022/11/21 01:03:32;;;;;;;30.77;19.55;;;;;;;;;;5079062;28;20418;-71
2022/11/21 01:06:05;;;;;;;29.57;19.33;;;;;;;;;;5057246;28;20459;-71
2022/11/21 01:08:31;;;;;;;30.30;20.20;;;;;;;;;;5067872;28;20503;-71
2022/11/21 01:11:02;;;;;;;30.90;19.77;;;;;;;;;;5070401;28;20418;-72
2022/11/21 01:13:28;;;;;;;30.88;20.13;;;;;;;;;;5071262;28;20420;-71
2022/11/21 01:15:54;;;;;;;29.67;19.98;;;;;;;;;;5089771;28;20455;-80
2022/11/21 01:18:20;;;;;;;27.80;19.08;;;;;;;;;;5078598;28;20836;-78
2022/11/21 01:20:46;;;;;;;27.80;19.48;;;;;;;;;;5090758;28;20985;-79
2022/11/21 01:23:12;;;;;;;30.03;19.33;;;;;;;;;;5082965;28;20455;-79
2022/11/21 01:25:38;;;;;;;30.10;20.02;;;;;;;;;;5073948;28;20409;-71
2022/11/21 01:28:04;;;;;;;28.73;19.58;;;;;;;;;;5074355;28;20402;-79
2022/11/21 01:30:30;;;;;;;29.25;20.60;;;;;;;;;;5084938;28;20420;-80
2022/11/21 01:32:56;;;;;;;30.73;20.08;;;;;;;;;;5087996;28;20510;-79
2022/11/21 01:35:24;;;;;;;31.33;20.63;;;;;;;;;;5080660;28;20907;-79
2022/11/21 01:37:51;;;;;;;32.53;20.48;;;;;;;;;;5064508;28;20429;-72
2022/11/21 01:40:17;;;;;;;32.00;20.42;;;;;;;;;;5046229;28;20580;-71
2022/11/21 01:43:01;;;;;;;29.67;20.35;;;;;;;;;;5048608;28;20417;-71
2022/11/21 01:45:52;;;;;;;31.50;20.20;;;1.50;99.90;;;;;;5060732;28;20423;-70
2022/11/21 01:48:19;;;;;;;32.20;20.80;;;;;;;;;;5060733;28;20427;-72
2022/11/21 01:50:48;;;;;;;31.20;20.70;;;;;;;;;;5078467;28;20994;-71
2022/11/21 01:53:14;;;;;;;32.07;21.53;;;;;;;;;;5032610;28;20952;-71
2022/11/21 01:55:40;;;;;;;33.22;21.45;;;;;;;;;;5033723;28;20488;-71
2022/11/21 01:58:06;;;;;;;32.20;21.20;;;;;;;;;;5061456;28;20447;-72
2022/11/21 02:00:36;;;;;;;33.85;20.75;;;;;;;;;;5062956;28;20419;-72
2022/11/21 02:03:04;;;;;;;31.65;20.65;;;;;;;;;;5041117;28;20423;-71
2022/11/21 02:05:31;;;;;;;32.00;20.25;;;;;;;;;;5053435;28;20407;-71
2022/11/21 02:07:59;;;;;;;32.45;20.13;;;;;;;;;;5065161;28;20448;-72
2022/11/21 02:10:25;;;;;;;31.90;20.73;;;;;;;;;;5063312;28;20428;-71
2022/11/21 02:12:55;;;;;;;33.23;21.43;;;;;;;;;;5065193;28;20845;-71
2022/11/21 02:15:22;;;;;;;34.00;21.40;;;;;;;;;;5053824;28;20735;-71
2022/11/21 02:17:48;;;;;;;32.15;21.05;;;;;;;;;;5040990;28;20432;-71
2022/11/21 02:20:16;;;;;;;34.35;21.67;;;;;;;;;;5060567;28;20456;-72
2022/11/21 02:23:01;;;;;;;38.65;24.75;;;;;;;;;;5062753;28;20421;-72
2022/11/21 02:25:28;;;;;;;36.60;22.25;;;;;;;;;;5068517;28;20419;-72
2022/11/21 02:27:57;;;;;;;33.33;21.63;;;;;;;;;;5046299;28;20433;-72
2022/11/21 02:30:23;;;;;;;35.30;21.90;;;;;;;;;;5060751;28;20429;-72
2022/11/21 02:32:49;;;;;;;32.60;21.67;;;;;;;;;;5041821;28;20455;-73
2022/11/21 02:35:16;;;;;;;33.53;21.17;;;;;;;;;;5052907;28;20415;-80
2022/11/21 02:37:42;;;;;;;35.28;22.23;;;;;;;;;;5033017;28;20434;-80
2022/11/21 02:40:12;;;;;;;34.28;21.98;;;;;;;;;;5064488;28;20507;-79
2022/11/21 02:42:38;;;;;;;35.28;22.38;;;;;;;;;;5041124;28;20457;-80
2022/11/21 02:45:43;;;;;;;35.10;22.57;;;;;;;;;;5034757;28;20543;-72
2022/11/21 02:48:09;;;;;;;35.83;22.60;;;;;;;;;;5005602;28;20819;-72
2022/11/21 02:50:36;;;;;;;38.15;22.98;;;;;;;;;;5016941;28;20438;-72
2022/11/21 02:53:03;;;;;;;35.53;23.42;;;;;;;;;;5040820;28;20501;-73
2022/11/21 02:55:29;;;;;;;37.88;23.65;;;;;;;;;;5058456;28;20427;-72
2022/11/21 02:57:55;;;;;;;35.08;22.50;;;;;;;;;;5051475;28;20428;-72
2022/11/21 03:00:21;;;;;;;35.63;22.52;;;;;;;;;;5053065;28;20421;-73
2022/11/21 03:02:48;;;;;;;34.20;22.02;;;;;;;;;;5055627;28;20417;-73
2022/11/21 03:05:16;;;;;;;35.05;22.10;;;;;;;;;;5067741;28;20992;-73
2022/11/21 03:07:42;;;;;;;34.00;22.45;;;;;;;;;;5055193;28;20502;-73
2022/11/21 03:10:08;;;;;;;32.27;21.07;;;;;;;;;;5060497;28;20423;-73
2022/11/21 03:12:38;;;;;;;32.50;21.00;;;;;;;;;;5053439;28;20734;-73
2022/11/21 03:15:05;;;;;;;32.90;21.33;;;;;;;;;;5064206;28;20478;-74
2022/11/21 03:17:31;;;;;;;34.63;20.90;;;;;;;;;;5071725;28;20423;-73
2022/11/21 03:19:57;;;;;;;32.55;21.08;;;;;;;;;;5055958;28;20424;-73
2022/11/21 03:22:24;;;;;;;34.42;21.45;;;;;;;;;;5073006;28;20402;-73
2022/11/21 03:24:50;;;;;;;34.17;21.17;;;;;;;;;;5066990;28;20415;-73
2022/11/21 03:27:16;;;;;;;34.83;21.88;;;;;;;;;;5064336;28;20415;-73
2022/11/21 03:29:42;;;;;;;35.90;23.25;;;;;;;;;;5042752;28;20766;-73
2022/11/21 03:32:08;;;;;;;37.10;23.03;;;;;;;;;;5056896;28;20421;-73
2022/11/21 03:34:35;;;;;;;33.50;22.23;;;;;;;;;;5069472;28;20416;-73
2022/11/21 03:37:01;;;;;;;34.25;21.85;;;;;;;;;;5051823;28;20436;-73
2022/11/21 03:39:27;;;;;;;34.60;22.55;;;;;;;;;;5038743;28;20520;-73
2022/11/21 03:41:53;;;;;;;33.80;22.00;;;;;;;;;;5090868;28;20416;-73
2022/11/21 03:44:19;;;;;;;33.47;21.52;;;;;;;;;;5092041;28;20424;-73
2022/11/21 03:46:48;;;;;;;33.78;21.65;;;;;;;;;;5095362;28;20455;-73
2022/11/21 03:49:15;;;;;;;34.78;22.02;;;;;;;;;;5085050;28;20511;-73
2022/11/21 03:51:42;;;;;;;31.77;20.85;;;;;;;;;;5088912;28;20416;-74
2022/11/21 03:54:08;;;;;;;33.28;21.52;;;;;;;;;;5090552;28;20913;-72
2022/11/21 03:56:34;;;;;;;36.13;22.65;;;;;;;;;;5062298;28;20418;-74
2022/11/21 03:59:01;;;;;;;35.10;22.60;;;;;;;;;;5065234;28;20482;-73
2022/11/21 04:01:27;;;;;;;35.50;22.92;;;;;;;;;;5073568;28;20762;-73
2022/11/21 04:03:53;;;;;;;39.92;24.05;;;;;;;;;;5075274;28;20413;-73
2022/11/21 04:06:21;;;;;;;40.78;24.48;;;;;;;;;;5059991;28;20739;-73
2022/11/21 04:08:47;;;;;;;39.35;24.95;;;;;;;;;;5077145;28;20401;-73
2022/11/21 04:11:13;;;;;;;38.10;24.57;;;;;;;;;;5076090;28;20422;-73
2022/11/21 04:13:40;;;;;;;39.38;24.73;;;;;;;;;;5075441;28;20449;-73
2022/11/21 04:16:06;;;;;;;40.80;25.57;;;;;;;;;;5076764;28;20500;-73
2022/11/21 04:18:33;;;;;;;40.92;24.85;;;;;;;;;;5075615;28;20770;-73
2022/11/21 04:21:00;;;;;;;42.73;25.43;;;;;;;;;;5074731;28;20429;-73
2022/11/21 04:23:26;;;;;;;42.75;26.33;;;;;;;;;;5079572;28;20410;-73
2022/11/21 04:25:52;;;;;;;42.20;25.88;;;;;;;;;;5081699;28;20422;-73
2022/11/21 04:28:19;;;;;;;42.45;26.65;;;;;;;;;;5059886;28;20426;-73
2022/11/21 04:30:47;;;;;;;42.45;25.83;;;;;;;;;;5089549;28;20424;-73
2022/11/21 04:33:14;;;;;;;42.60;25.88;;;;;;;;;;5076309;28;20418;-73
2022/11/21 04:35:42;;;;;;;43.47;25.90;;;;;;;;;;5075050;28;20410;-72
2022/11/21 04:38:08;;;;;;;45.30;27.60;;;;;;;;;;5091869;28;20412;-73
2022/11/21 04:40:34;;;;;;;45.17;25.85;;;;;;;;;;5083888;28;20525;-73
2022/11/21 04:43:00;;;;;;;45.97;27.40;;;;;;;;;;5059710;28;20809;-73
2022/11/21 04:45:27;;;;;;;45.45;27.27;;;;;;;;;;5070072;28;20422;-72
2022/11/21 04:47:53;;;;;;;48.67;29.13;;;;;;;;;;5058054;28;20429;-72
2022/11/21 04:50:19;;;;;;;46.75;27.73;;;;;;;;;;5073947;28;20425;-72
2022/11/21 04:52:52;;;;;;;46.80;28.05;;;;;;;;;;5074423;28;20418;-72
2022/11/21 04:55:18;;;;;;;45.67;27.75;;;;;;;;;;5076957;28;20909;-72
2022/11/21 04:57:45;;;;;;;47.95;27.48;;;;;;;;;;5089551;28;20423;-72
2022/11/21 05:00:11;;;;;;;48.40;28.23;;;;;;;;;;5086092;28;22257;-72
2022/11/21 05:02:38;;;;;;;50.40;29.23;;;;;;;;;;5052721;28;20409;-72
2022/11/21 05:05:04;;;;;;;52.67;29.83;;;;;;;;;;5080175;28;20415;-72
2022/11/21 05:07:30;;;;;;;51.22;28.98;;;;;;;;;;5083887;28;20420;-72
2022/11/21 05:09:56;;;;;;;51.10;29.70;;;;;;;;;;5087421;28;20424;-72
2022/11/21 05:15:06;;;;;;;55.00;30.73;;;;;;;;;;5079457;28;20511;-72
2022/11/21 05:17:33;;;;;;;50.47;28.30;;;;;;;;;;5089217;28;20937;-72
2022/11/21 05:19:59;;;;;;;61.03;30.95;;;;;;;;;;5073320;28;20910;-71
2022/11/21 05:22:25;;;;;;;56.63;31.25;;;;;;;;;;5073867;28;20449;-71
2022/11/21 05:24:51;;;;;;;49.25;28.30;;;;;;;;;;5072392;28;20967;-71
2022/11/21 05:27:17;;;;;;;55.30;29.80;;;;;;;;;;5087681;28;20409;-71
2022/11/21 05:29:43;;;;;;;49.60;28.45;;;;;;;;;;5073620;28;20445;-71
2022/11/21 05:32:09;;;;;;;49.25;28.33;;;;;;;;;;5078870;28;20568;-71
2022/11/21 05:34:35;;;;;;;52.38;28.67;;;;;;;;;;5079411;28;20416;-71
2022/11/21 05:37:01;;;;;;;47.17;27.02;;;;;;;;;;5092389;28;20416;-72
2022/11/21 05:39:27;;;;;;;51.80;30.00;;;;;;;;;;5088118;28;20416;-72
2022/11/21 05:41:53;;;;;;;51.03;29.00;;;;;;;;;;5092493;28;20421;-72
2022/11/21 05:44:19;;;;;;;53.50;30.13;;;;;;;;;;5041026;28;20565;-71
2022/11/21 05:46:45;;;;;;;51.17;29.50;;;;;;;;;;5082376;28;20417;-72
2022/11/21 05:49:11;;;;;;;52.07;29.43;;;;;;;;;;5073918;28;20444;-72
2022/11/21 05:51:37;;;;;;;49.13;29.00;;;;;;;;;;5073159;28;20413;-73
2022/11/21 05:54:04;;;;;;;50.40;28.40;;;;;;;;;;5087621;28;20415;-71
2022/11/21 05:56:30;;;;;;;51.70;30.88;;;;;;;;;;5072947;28;20426;-71
2022/11/21 05:58:57;;;;;;;49.22;26.83;;;;;;;;;;5079180;28;20469;-72
2022/11/21 06:04:08;;;;;;;45.80;26.83;;;;;;;;;;5091535;28;20397;-72
2022/11/21 06:06:35;;;;;;;48.05;27.20;;;;;;;;;;5075082;28;20793;-72
2022/11/21 06:09:01;;;;;;;49.35;27.23;;;;;;;;;;5072325;28;20483;-72
2022/11/21 06:11:27;;;;;;;47.92;28.00;;;;;;;;;;5071896;28;20467;-73
2022/11/21 06:13:53;;;;;;;51.45;29.35;;;;;;;;;;5073477;28;20893;-71
2022/11/21 06:16:20;;;;;;;74.38;32.88;;;;;;;;;;5056042;28;20422;-73
2022/11/21 06:18:51;;;;;;;61.60;33.30;;;;;;;;;;5056659;28;20418;-72
2022/11/21 06:21:21;;;;;;;49.47;28.50;;;;;;;;;;5055693;28;20422;-72
2022/11/21 06:23:49;;;;;;;51.47;29.13;;;;;;;;;;5073106;28;20425;-72
2022/11/21 06:26:16;;;;;;;51.97;28.17;;;;;;;;;;5075022;28;20452;-71
2022/11/21 06:28:43;;;;;;;51.95;28.92;;;;;;;;;;5078936;28;20416;-72
2022/11/21 06:31:13;;;;;;;58.03;30.95;;;;;;;;;;5084530;28;20427;-71
2022/11/21 06:33:40;;;;;;;51.05;29.20;;;;;;;;;;5080258;28;20524;-71
2022/11/21 06:36:10;;;;;;;76.65;33.25;;;;;;;;;;5073648;28;20816;-72
2022/11/21 06:38:37;;;;;;;170.83;42.97;;;;;;;;;;5094769;28;20939;-71
2022/11/21 06:41:06;;;;;;;61.20;33.38;;;;;;;;;;5092851;28;20444;-71
2022/11/21 06:43:32;;;;;;;53.10;30.33;;;;;;;;;;5097235;28;20398;-72
2022/11/21 06:45:58;;;;;;;54.55;30.98;;;;;;;;;;5079114;28;20925;-71
2022/11/21 06:48:24;;;;;;;57.72;32.13;;;;;;;;;;5060829;28;20421;-71
2022/11/21 06:50:51;;;;;;;55.85;30.90;;;;;;;;;;5059745;28;20449;-72
2022/11/21 06:53:17;;;;;;;56.28;31.77;;;;;;;;;;5060251;28;20417;-72
2022/11/21 06:55:43;;;;;;;62.33;32.80;;;;;;;;;;5081897;28;20562;-72
2022/11/21 06:58:10;;;;;;;57.33;32.33;;;;;;;;;;5089141;28;20412;-72
2022/11/21 07:00:36;;;;;;;64.78;37.33;;;;;;;;;;5090695;28;20457;-72
2022/11/21 07:03:02;;;;;;;77.05;37.95;;;;;;;;;;5070570;28;20413;-72
2022/11/21 07:05:28;;;;;;;65.30;35.20;;;;;;;;;;5076254;28;20906;-72
2022/11/21 07:08:02;;;;;;;60.67;32.55;;;;;;;;;;5076278;28;20494;-72
2022/11/21 07:10:28;;;;;;;61.25;33.35;;;;;;;;;;5086341;28;20412;-72
2022/11/21 07:15:43;;;;;;;77.17;36.03;;;;;;;;;;5081870;28;20426;-72
2022/11/21 07:18:09;;;;;;;61.23;32.83;;;;;;;;;;5074493;28;20519;-72
2022/11/21 07:20:35;;;;;;;65.93;34.63;;;;;;;;;;5061929;28;20416;-72
2022/11/21 07:23:01;;;;;;;58.80;33.13;;;;;;;;;;5090226;28;20931;-73
2022/11/21 07:25:28;;;;;;;65.43;35.80;;;;;;;;;;5091256;28;20428;-72
2022/11/21 07:27:54;;;;;;;60.50;33.25;;;;;;;;;;5079573;28;20414;-74
2022/11/21 07:30:20;;;;;;;58.58;31.70;;;;;;;;;;5079060;28;20426;-72
2022/11/21 07:32:46;;;;;;;57.85;32.38;;;;;;;;;;5079689;28;20421;-72
2022/11/21 07:35:12;;;;;;;61.38;34.72;;;;;;;;;;5059478;28;20437;-73
2022/11/21 07:37:39;;;;;;;57.97;32.20;;;;;;;;;;5061017;28;20483;-74
2022/11/21 07:40:05;;;;;;;58.47;32.83;;;;;;;;;;5088684;28;20413;-73
2022/11/21 07:42:32;;;;;;;61.10;31.30;;;;;;;;;;5076162;28;20413;-73
2022/11/21 07:44:58;;;;;;;52.90;29.70;;;;;;;;;;5078591;28;20428;-72
2022/11/21 07:47:24;;;;;;;51.47;29.73;;;;;;;;;;5087875;28;20414;-72
2022/11/21 07:49:50;;;;;;;53.03;29.25;;;;;;;;;;5076941;28;20469;-72
2022/11/21 07:52:16;;;;;;;54.60;32.30;;;;;;;;;;5082243;28;20432;-72
2022/11/21 07:54:42;;;;;;;53.08;28.83;;;;;;;;;;5051709;28;20456;-72
2022/11/21 07:57:08;;;;;;;51.22;29.27;;;;;;;;;;5082193;28;20420;-72
2022/11/21 07:59:34;;;;;;;53.43;29.37;;;;;;;;;;5091377;28;20463;-72
2022/11/21 08:02:00;;;;;;;48.75;29.52;;;;;;;;;;5078068;28;20418;-73
2022/11/21 08:04:27;;;;;;;49.17;29.77;;;;;;;;;;5077192;28;20426;-72
2022/11/21 08:06:53;;;;;;;50.55;29.58;;;;;;;;;;5080970;28;20649;-73
2022/11/21 08:09:19;;;;;;;50.58;28.33;;;;;;;;;;5090033;28;20796;-72
2022/11/21 08:11:45;;;;;;;48.83;28.70;;;;;;;;;;5075330;28;20460;-72
2022/11/21 08:14:11;;;;;;;48.25;28.95;;;;;;;;;;5075478;28;20421;-72
2022/11/21 08:16:37;;;;;;;49.33;29.33;;;;;;;;;;5083858;28;20833;-73
2022/11/21 08:19:05;;;;;;;48.80;29.27;;;;;;;;;;5081964;28;20897;-73
2022/11/21 08:21:31;;;;;;;51.88;30.02;;;;;;;;;;5075675;28;20414;-73
2022/11/21 08:23:57;;;;;;;55.80;31.65;;;;;;;;;;5058356;28;20394;-73
2022/11/21 08:26:23;;;;;;;54.80;30.60;;;;;;;;;;5073065;28;20433;-73
2022/11/21 08:28:49;;;;;;;53.00;31.55;;;;;;;;;;5075302;28;20929;-73
2022/11/21 08:31:15;;;;;;;52.17;32.60;;;;;;;;;;5099819;27;20474;-72
2022/11/21 08:33:41;;;;;;;51.05;31.63;;;;;;;;;;5115701;27;20403;-73
2022/11/21 08:36:08;;;;;;;55.87;30.97;;;;;;;;;;5115613;27;20784;-73
2022/11/21 08:38:34;;;;;;;49.33;30.48;;;;;;;;;;5103974;28;20418;-73
2022/11/21 08:43:45;;;;;;;52.67;31.63;;;;;;;;;;5089142;28;20487;-73
2022/11/21 08:46:11;;;;;;;48.38;30.17;;;;;;;;;;5087388;28;20452;-74
2022/11/21 08:48:37;;;;;;;51.38;30.20;;;;;;;;;;5083757;28;20500;-73
2022/11/21 08:51:03;;;;;;;47.70;29.08;;;;;;;;;;5084451;28;20418;-74
2022/11/21 08:53:29;;;;;;;50.17;30.15;;;;;;;;;;5074327;28;20437;-74
2022/11/21 08:55:55;;;;;;;52.20;31.35;;;;;;;;;;5058622;28;20820;-74
2022/11/21 08:58:21;;;;;;;115.53;36.33;;;;;;;;;;5082867;28;20489;-74
2022/11/21 09:00:47;;;;;;;54.03;33.05;;;;;;;;;;5084533;28;20414;-74
2022/11/21 09:03:13;;;;;;;49.90;30.88;;;;;;;;;;5080962;28;20499;-74
2022/11/21 09:05:39;;;;;;;50.40;30.92;;;;;;;;;;5081961;28;20464;-74
2022/11/21 09:08:05;;;;;;;103.25;34.83;;;;;;;;;;5076290;28;20475;-75
2022/11/21 09:10:31;;;;;;;55.95;32.80;;;;;;;;;;5064044;28;20436;-75
2022/11/21 09:12:58;;;;;;;54.33;31.70;;;;;;;;;;5078152;28;20426;-74
2022/11/21 09:18:10;;;;;;;159.33;38.67;;;;;;;;;;5077576;28;20494;-74
2022/11/21 09:20:40;;;;;;;56.17;32.13;;;;;;;;;;5058782;28;20444;-74
2022/11/21 09:23:08;;;;;;;53.40;32.72;;;;;;;;;;5073052;28;20917;-73
2022/11/21 09:25:34;;;;;;;118.53;36.72;;;;;;;;;;5073136;28;20418;-73
2022/11/21 09:28:01;;;;;;;87.13;33.67;;;;;;;;;;5040739;28;20402;-73
2022/11/21 09:30:27;;;;;;;53.63;30.63;;;;;;;;;;5081434;28;20428;-73
2022/11/21 09:32:53;;;;;;;52.28;29.40;;;;;;;;;;5065575;28;20435;-73
2022/11/21 09:35:19;;;;;;;52.88;30.90;;;;;;;;;;5089260;28;20467;-74
2022/11/21 09:37:45;;;;;;;55.60;32.45;;;;;;;;;;5075373;28;20457;-72
2022/11/21 09:40:15;;;;;;;52.17;31.98;;;;;;;;;;5068971;28;20505;-73
2022/11/21 09:43:10;;;;;;;52.60;33.47;;;;;;;;;;5077464;28;20860;-72
2022/11/21 09:45:49;;;;;;;57.67;30.45;;;;;;;;;;5048160;28;20937;-73
2022/11/21 09:48:18;;;;;;;60.10;32.33;;;;;;;;;;5073319;28;20781;-72
2022/11/21 09:50:48;;;;;;;53.60;31.73;;;;;;;;;;5081634;28;20414;-72
2022/11/21 09:53:16;;;;;;;54.65;31.27;;;;;;;;;;5080072;28;20417;-72
2022/11/21 09:55:42;;;;;;;50.13;29.05;;;;;;;;;;5086924;28;20448;-73
2022/11/21 09:58:14;;;;;;;210.93;41.67;;;;;;;;;;5079486;28;20422;-73
2022/11/21 10:00:40;;;;;;;203.15;42.65;;;;;;;;;;5086554;28;20864;-72
2022/11/21 10:03:09;;;;;;;53.42;31.20;;;;;;;;;;5078642;28;20428;-73
2022/11/21 10:05:39;;;;;;;50.97;30.33;;;;;;;;;;5085785;28;20416;-73
2022/11/21 10:08:38;;;;;;;55.35;32.92;;;;;;;;;;5073707;28;20425;-73
2022/11/21 10:11:04;;;;;;;52.70;31.63;;;;;;;;;;5024724;28;20842;-73
2022/11/21 10:13:35;;;;;;;52.45;32.13;;;;;;;;;;5082131;28;20446;-73
2022/11/21 10:16:08;;;;;;;48.60;30.50;;;;;;;;;;5091409;28;20466;-73
2022/11/21 10:18:40;;;;;;;48.25;30.27;;;;;;;;;;5085131;28;20428;-73
2022/11/21 10:21:12;;;;;;;49.33;29.50;;;;;;;;;;5088929;28;20489;-72
2022/11/21 10:23:44;;;;;;;47.92;30.10;;;;;;;;;;5074877;28;20467;-73
2022/11/21 10:26:15;;;;;;;48.10;31.30;;;;;;;;;;5055582;28;20454;-73
2022/11/21 10:28:55;;;;;;;49.08;30.73;;;;;;;;;;5075691;28;20421;-73
2022/11/21 10:31:21;;;;;;;48.95;30.95;;;;;;;;;;5073719;28;20958;-73
2022/11/21 10:33:49;;;;;;;51.10;31.13;;;;;;;;;;5064135;28;20516;-72
2022/11/21 10:36:35;;;;;;;53.60;30.00;;;;;;;;;;5073005;28;20441;-73
2022/11/21 10:39:14;;;;;;;47.22;30.27;;;;;;;;;;5055945;28;20429;-73
2022/11/21 10:41:44;;;;;;;45.97;29.08;;;;;;;;;;5087331;28;20964;-73
2022/11/21 10:47:26;;;;;;;46.30;28.60;;;;;;;;;;5072235;28;20438;-73
2022/11/21 10:50:11;;;;;;;45.70;27.80;;;;;;;;;;5072964;28;20446;-73
2022/11/21 10:52:40;;;;;;;51.10;28.88;;;;;;;;;;5079609;28;20421;-73
2022/11/21 10:55:08;;;;;;;45.90;28.23;;;;;;;;;;5076999;28;20426;-73
2022/11/21 10:57:44;;;;;;;101.68;31.02;;;;;;;;;;5073011;28;20412;-73
2022/11/21 11:00:13;;;;;;;39.47;23.33;;;;;;;;;;5059765;28;20405;-73
2022/11/21 11:03:03;;;;;;;38.22;24.65;;;;;;;;;;5082653;28;20416;-73
2022/11/21 11:05:37;;;;;;;38.20;24.55;;;;;;;;;;5069182;28;20422;-73
2022/11/21 11:08:08;;;;;;;34.17;21.95;;;;;;;;;;5079908;28;20420;-73
2022/11/21 11:10:44;;;;;;;47.27;25.13;;;;;;;;;;5072734;28;20488;-74
2022/11/21 11:15:57;;;;;;;34.45;23.00;;;;;;;;;;5087349;28;20923;-80
2022/11/21 11:18:23;;;;;;;34.70;22.42;;;;;;;;;;5090454;28;20844;-81
2022/11/21 11:20:49;;;;;;;32.00;21.33;;;;;;;;;;5081161;28;20426;-83
2022/11/21 11:23:15;;;;;;;30.15;20.48;;;;;;;;;;5092969;28;20430;-81
2022/11/21 11:25:52;;;;;;;38.58;21.88;;;;;;;;;;5095781;28;20413;-82
2022/11/21 11:28:23;;;;;;;33.15;21.60;;;;;;;;;;5092736;28;20481;-81
2022/11/21 11:30:49;;;;;;;28.67;19.85;;;;;;;;;;5080555;28;20902;-81
2022/11/21 11:33:35;;;;;;;29.40;20.42;;;;;;;;;;5088449;28;20413;-81
2022/11/21 11:36:09;;;;;;;30.23;20.50;;;;;;;;;;5097780;28;20444;-82
2022/11/21 11:38:35;;;;;;;27.63;19.60;;;;;;;;;;5090701;28;20422;-82
2022/11/21 11:41:05;;;;;;;34.70;21.00;;;;;;;;;;5080035;28;20421;-81
2022/11/21 11:52:52;;;;;;;24.65;17.73;;;;;;;;;;5084984;28;20406;-82
2022/11/21 11:55:21;;;;;;;25.70;17.38;;;;;;;;;;5061499;28;20493;-81
2022/11/21 11:57:49;;;;;;;24.02;16.08;;;;;;;;;;5079621;28;20400;-82
2022/11/21 12:00:22;;;;;;;26.77;17.65;;;;;;;;;;5093614;28;20827;-82
2022/11/21 12:02:51;;;;;;;24.52;16.63;;;;;;;;;;5083197;28;20598;-81
2022/11/21 12:05:20;;;;;;;31.30;17.65;;;;;;;;;;5101900;28;20448;-82
2022/11/21 12:07:50;;;;;;;25.27;17.23;;;;;;;;;;5083144;28;20530;-82
2022/11/21 12:10:22;;;;;;;24.30;16.45;;;;;;;;;;5088733;28;20444;-82
2022/11/21 12:12:52;;;;;;;23.65;17.42;;;;;;;;;;5079610;28;20439;-81
2022/11/21 12:15:47;;;;;;;27.00;18.50;;;;;;;;;;5084279;28;20520;-82
2022/11/21 12:18:19;;;;;;;28.17;19.48;;;;;;;;;;5078219;28;20429;-83
2022/11/21 12:20:58;;;;;;;46.60;19.15;;;;;;;;;;5075848;28;20423;-82
2022/11/21 12:23:30;;;;;;;24.42;16.55;;;;;;;;;;5088546;28;20468;-83
2022/11/21 12:25:59;;;;;;;27.30;17.98;;;;;;;;;;5092948;28;20404;-81
2022/11/21 12:28:30;;;;;;;25.20;16.70;;;;;;;;;;5079180;28;20418;-82
2022/11/21 12:31:19;;;;;;;27.60;17.07;;;;;;;;;;5088082;28;20453;-82
2022/11/21 12:34:11;;;;;;;27.67;17.77;;;;;;;;;;5040251;28;20433;-81
2022/11/21 12:36:43;;;;;;;23.42;16.60;;;;;;;;;;5057655;28;20484;-82
2022/11/21 12:39:33;;;;;;;23.95;16.48;;;;;;;;;;5082906;28;20867;-81
2022/11/21 12:45:28;;;;;;;31.52;21.60;;;;;;;;;;5073541;28;20425;-81
2022/11/21 12:56:57;;;;;;;28.30;19.73;;;;;;;;;;5079354;28;20457;-73
2022/11/21 12:59:23;;;;;;;25.23;17.77;;;;;;;;;;5089518;28;20421;-73
2022/11/21 13:02:02;;;;;;;25.80;18.48;;;;;;;;;;5089223;28;20932;-82
2022/11/21 13:04:38;;;;;;;26.43;18.10;;;;;;;;;;5079439;28;20428;-82
2022/11/21 13:07:05;;;;;;;28.45;18.13;;;;;;;;;;5087215;28;20408;-82
2022/11/21 13:09:34;;;;;;;27.08;18.95;;;;;;;;;;5089620;28;20428;-83
2022/11/21 13:12:08;;;;;;;24.17;17.02;;;;;;;;;;5079170;28;20422;-74
2022/11/21 13:14:38;;;;;;;26.30;17.02;;;;;;;;;;5076894;28;20443;-73
2022/11/21 13:17:04;;;;;;;34.03;19.35;;;;;;;;;;5068949;28;20510;-73
2022/11/21 13:19:36;;;;;;;25.70;16.83;;;;;;;;;;5086746;28;20966;-73
2022/11/21 13:22:02;;;;;;;24.60;16.58;;;;;;;;;;5082858;28;20445;-73
2022/11/21 13:24:43;;;;;;;39.77;18.30;;;;;;;;;;5064492;28;20397;-73
2022/11/21 13:27:30;;;;;;;24.40;16.20;;;;;;;;;;5085256;28;21063;-73
2022/11/21 13:30:11;;;;;;;24.13;16.50;;;;;;;;;;5076859;28;20425;-73
2022/11/21 13:32:37;;;;;;;42.85;18.15;;;;;;;;;;5082214;27;20458;-74
2022/11/21 13:35:23;;;;;;;53.30;21.42;;;;;;;;;;5084543;28;20718;-73
2022/11/21 13:37:49;;;;;;;24.67;16.80;;;;;;;;;;5085262;28;20416;-73
2022/11/21 13:40:31;;;;;;;25.33;16.88;;;;;;;;;;5084451;28;20429;-83
2022/11/21 13:43:10;;;;;;;25.67;17.45;;;;;;;;;;5073118;28;20418;-81
2022/11/21 13:45:38;;;;;;;29.50;19.30;;;;;;;;;;5071376;28;20513;-81
2022/11/21 13:48:14;;;;;;;28.88;19.48;;;;;;;;;;5057368;28;20414;-83
2022/11/21 13:50:59;;;;;;;31.10;20.98;;;;;;;;;;5081677;28;20421;-82
2022/11/21 13:53:31;;;;;;;30.83;19.33;;;;;;;;;;5088174;28;20427;-83
2022/11/21 13:55:59;;;;;;;34.13;19.98;;;;;;;;;;5081837;28;20462;-82
2022/11/21 13:58:56;;;;;;;32.88;20.98;;;4.10;99.90;;;;;;5058753;28;20432;-82
2022/11/21 14:01:28;;;;;;;35.65;21.70;;;;;;;;;;5074118;28;20448;-73
2022/11/21 14:03:54;;;;;;;33.08;21.20;;;;;;;;;;5080841;28;20515;-73
2022/11/21 14:06:36;;;;;;;35.53;22.20;;;;;;;;;;5079617;28;20832;-73
2022/11/21 14:09:19;;;;;;;37.88;22.73;;;;;;;;;;5083949;28;20424;-72
2022/11/21 14:11:47;;;;;;;36.63;22.55;;;;;;;;;;5078883;28;21004;-73
2022/11/21 14:14:23;;;;;;;37.35;23.00;;;;;;;;;;5079115;28;20418;-73
2022/11/21 14:16:51;;;;;;;37.53;24.10;;;;;;;;;;5087333;28;20918;-73
2022/11/21 14:19:19;;;;;;;40.80;23.55;;;;;;;;;;5079946;28;20558;-74
2022/11/21 14:21:45;;;;;;;38.33;23.27;;;;;;;;;;5074454;28;20984;-73
2022/11/21 14:24:14;;;;;;;41.67;23.60;;;;;;;;;;5087336;28;20906;-73
2022/11/21 14:26:43;;;;;;;42.40;24.60;;;;;;;;;;5077992;28;20420;-73
2022/11/21 14:29:23;;;;;;;40.50;24.40;;;;;;;;;;5073466;28;20933;-73
2022/11/21 14:31:49;;;;;;;42.60;27.55;;;;;;;;;;5078952;28;20416;-73
2022/11/21 14:34:25;;;;;;;42.22;24.02;;;;;;;;;;5093598;28;20429;-73
2022/11/21 14:36:51;;;;;;;39.83;24.25;;;;;;;;;;5064288;28;20426;-73
2022/11/21 14:39:18;;;;;;;42.05;25.40;;;;;;;;;;5081724;28;20451;-73
2022/11/21 14:41:47;;;;;;;41.88;24.10;;;;;;;;;;5084332;28;20429;-74
2022/11/21 14:44:15;;;;;;;41.40;23.50;;;;;;;;;;5083915;28;20808;-74
2022/11/21 14:46:42;;;;;;;56.40;28.15;;;;;;;;;;5080072;28;20452;-74
2022/11/21 14:49:20;;;;;;;41.45;24.55;;;;;;;;;;5070412;28;20761;-73
2022/11/21 14:51:51;;;;;;;47.58;28.05;;;;;;;;;;5090750;28;20821;-80
2022/11/21 14:54:19;;;;;;;49.40;28.23;;;;;;;;;;5083719;28;20416;-82
2022/11/21 14:56:52;;;;;;;52.97;30.40;;;;;;;;;;5083243;28;20451;-82
2022/11/21 14:59:23;;;;;;;51.13;29.70;;;;;;;;;;5081504;28;20424;-81
2022/11/21 15:01:57;;;;;;;48.53;28.87;;;;;;;;;;5077544;28;20480;-81
2022/11/21 15:04:28;;;;;;;51.45;30.60;;;;;;;;;;5071775;28;20410;-81
2022/11/21 15:06:54;;;;;;;53.92;29.95;;;;;;;;;;5061530;28;20489;-81